createdAt,value
2018-11-07T00:00:08.753Z,95249.45
2018-11-07T00:02:37.863Z,95248.30
2018-11-07T00:05:07.030Z,95253.52
2018-11-07T00:07:36.131Z,95255.71
2018-11-07T00:10:06.510Z,95252.16
2018-11-07T00:12:35.717Z,95259.20
2018-11-07T00:15:05.156Z,95257.89
2018-11-07T00:17:34.251Z,95264.66
2018-11-07T00:20:03.536Z,95268.87
2018-11-07T00:22:32.720Z,95262.09
2018-11-07T00:25:01.924Z,95260.47
2018-11-07T00:27:31.084Z,95255.28
2018-11-07T00:30:00.272Z,95249.27
2018-11-07T00:32:29.332Z,95245.56
2018-11-07T00:34:58.547Z,95238.86
2018-11-07T00:37:27.707Z,95244.48
2018-11-07T00:39:56.858Z,95245.56
2018-11-07T00:42:26.018Z,95239.58
2018-11-07T00:44:55.201Z,95241.37
2018-11-07T00:47:24.279Z,95254.30
2018-11-07T00:49:53.435Z,95242.56
2018-11-07T00:52:22.590Z,95244.95
2018-11-07T00:54:51.743Z,95247.47
2018-11-07T00:57:20.861Z,95243.14
2018-11-07T00:59:50.429Z,95250.94
2018-11-07T01:02:19.552Z,95249.91
2018-11-07T01:04:48.791Z,95247.67
2018-11-07T01:07:17.858Z,95240.13
2018-11-07T01:09:47.053Z,95241.34
2018-11-07T01:12:16.147Z,95246.16
2018-11-07T01:14:45.332Z,95242.39
2018-11-07T01:17:14.477Z,95246.23
2018-11-07T01:19:43.643Z,95243.56
2018-11-07T01:22:12.869Z,95241.93
2018-11-07T01:24:42.844Z,95244.09
2018-11-07T01:27:11.917Z,95243.08
2018-11-07T01:29:41.105Z,95248.76
2018-11-07T01:32:10.253Z,95246.33
2018-11-07T01:34:39.448Z,95244.25
2018-11-07T01:37:08.562Z,95234.73
2018-11-07T01:39:37.728Z,95233.20
2018-11-07T01:42:06.942Z,95229.52
2018-11-07T01:44:36.180Z,95225.20
2018-11-07T01:47:05.396Z,95223.61
2018-11-07T01:49:34.624Z,95217.82
2018-11-07T01:52:03.792Z,95215.29
2018-11-07T01:54:32.916Z,95211.20
2018-11-07T01:57:02.016Z,95210.97
2018-11-07T01:59:31.148Z,95206.34
2018-11-07T02:02:00.278Z,95210.16
2018-11-07T02:04:29.422Z,95203.00
2018-11-07T02:06:58.592Z,95207.34
2018-11-07T02:09:27.686Z,95208.65
2018-11-07T02:11:56.835Z,95212.42
2018-11-07T02:14:26.033Z,95207.29
2018-11-07T02:16:55.128Z,95202.31
2018-11-07T02:19:24.279Z,95197.45
2018-11-07T02:21:53.394Z,95205.69
2018-11-07T02:24:22.989Z,95207.52
2018-11-07T02:26:52.090Z,95207.70
2018-11-07T02:29:21.287Z,95205.67
2018-11-07T02:31:50.422Z,95212.84
2018-11-07T02:34:19.601Z,95219.47
2018-11-07T02:36:48.764Z,95217.96
2018-11-07T02:39:17.942Z,95218.08
2018-11-07T02:41:47.307Z,95205.91
2018-11-07T02:44:16.472Z,95204.98
2018-11-07T02:46:45.621Z,95204.10
2018-11-07T02:49:14.786Z,95200.44
2018-11-07T02:51:43.928Z,95202.67
2018-11-07T02:54:13.077Z,95209.05
2018-11-07T02:56:42.193Z,95202.95
2018-11-07T02:59:11.348Z,95192.48
2018-11-07T03:01:40.560Z,95193.74
2018-11-07T03:04:09.658Z,95189.97
2018-11-07T03:06:38.748Z,95195.52
2018-11-07T03:09:09.018Z,95192.89
2018-11-07T03:11:38.325Z,95193.09
2018-11-07T03:14:08.042Z,95193.88
2018-11-07T03:16:37.313Z,95197.78
2018-11-07T03:19:06.822Z,95181.09
2018-11-07T03:21:35.948Z,95177.49
2018-11-07T03:24:05.360Z,95169.48
2018-11-07T03:26:34.580Z,95175.91
2018-11-07T03:29:03.705Z,95173.48
2018-11-07T03:31:32.835Z,95171.55
2018-11-07T03:34:01.905Z,95169.09
2018-11-07T03:36:31.039Z,95175.22
2018-11-07T03:39:00.147Z,95170.42
2018-11-07T03:41:29.284Z,95170.23
2018-11-07T03:43:58.374Z,95179.27
2018-11-07T03:46:27.536Z,95179.79
2018-11-07T03:48:56.636Z,95180.63
2018-11-07T03:51:25.736Z,95179.54
2018-11-07T03:53:54.854Z,95179.84
2018-11-07T03:56:24.016Z,95182.61
2018-11-07T03:58:53.248Z,95178.23
2018-11-07T04:01:22.406Z,95170.30
2018-11-07T04:03:51.564Z,95159.70
2018-11-07T04:06:20.642Z,95157.47
2018-11-07T04:08:49.812Z,95163.18
2018-11-07T04:11:18.905Z,95167.04
2018-11-07T04:13:48.133Z,95171.14
2018-11-07T04:16:17.396Z,95180.73
2018-11-07T04:18:46.696Z,95175.11
2018-11-07T04:21:15.775Z,95171.80
2018-11-07T04:23:53.149Z,95170.36
2018-11-07T04:26:22.228Z,95167.73
2018-11-07T04:28:51.320Z,95171.55
2018-11-07T04:31:20.488Z,95174.78
2018-11-07T04:33:49.618Z,95166.86
2018-11-07T04:36:18.863Z,95166.61
2018-11-07T04:38:48.084Z,95164.14
2018-11-07T04:41:17.178Z,95167.91
2018-11-07T04:43:46.352Z,95166.86
2018-11-07T04:46:15.458Z,95165.36
2018-11-07T04:48:44.768Z,95166.96
2018-11-07T04:51:14.288Z,95162.66
2018-11-07T04:53:43.397Z,95162.17
2018-11-07T04:56:12.555Z,95169.50
2018-11-07T04:58:41.743Z,95158.27
2018-11-07T05:01:10.833Z,95159.41
2018-11-07T05:03:40.163Z,95153.08
2018-11-07T05:06:09.254Z,95160.63
2018-11-07T05:08:38.516Z,95160.87
2018-11-07T05:11:07.533Z,95162.72
2018-11-07T05:13:36.993Z,95160.66
2018-11-07T05:16:06.054Z,95160.69
2018-11-07T05:18:35.222Z,95156.69
2018-11-07T05:21:04.336Z,95147.38
2018-11-07T05:23:33.555Z,95158.10
2018-11-07T05:26:03.569Z,95155.69
2018-11-07T05:28:32.729Z,95154.27
2018-11-07T05:31:01.765Z,95154.19
2018-11-07T05:33:30.924Z,95151.45
2018-11-07T05:36:00.125Z,95150.32
2018-11-07T05:38:29.313Z,95162.97
2018-11-07T05:40:58.520Z,95168.30
2018-11-07T05:43:28.017Z,95175.75
2018-11-07T05:45:57.117Z,95173.98
2018-11-07T05:48:26.320Z,95172.83
2018-11-07T05:50:55.405Z,95170.45
2018-11-07T05:53:24.623Z,95175.00
2018-11-07T05:55:54.066Z,95174.59
2018-11-07T05:58:23.629Z,95167.84
2018-11-07T06:00:52.828Z,95175.30
2018-11-07T06:03:21.934Z,95168.25
2018-11-07T06:05:51.050Z,95166.39
2018-11-07T06:08:20.216Z,95162.98
2018-11-07T06:10:49.305Z,95174.39
2018-11-07T06:13:18.412Z,95171.61
2018-11-07T06:15:47.552Z,95178.70
2018-11-07T06:18:16.784Z,95183.39
2018-11-07T06:20:45.980Z,95190.98
2018-11-07T06:23:15.080Z,95189.50
2018-11-07T06:25:44.300Z,95197.78
2018-11-07T06:28:13.470Z,95190.27
2018-11-07T06:30:42.541Z,95183.42
2018-11-07T06:33:11.672Z,95189.41
2018-11-07T06:35:40.859Z,95185.30
2018-11-07T06:38:10.008Z,95181.10
2018-11-07T06:40:39.288Z,95184.64
2018-11-07T06:43:09.437Z,95189.80
2018-11-07T06:45:38.571Z,95192.22
2018-11-07T06:48:07.854Z,95192.78
2018-11-07T06:50:36.959Z,95204.28
2018-11-07T06:53:06.061Z,95200.50
2018-11-07T06:55:35.309Z,95204.55
2018-11-07T06:58:04.340Z,95195.45
2018-11-07T07:00:35.167Z,95198.09
2018-11-07T07:03:05.174Z,95198.69
2018-11-07T07:05:34.288Z,95200.09
2018-11-07T07:08:03.410Z,95184.78
2018-11-07T07:10:32.595Z,95189.59
2018-11-07T07:13:01.706Z,95193.59
2018-11-07T07:15:31.952Z,95196.03
2018-11-07T07:18:01.052Z,95200.41
2018-11-07T07:20:30.208Z,95202.04
2018-11-07T07:22:59.337Z,95199.87
2018-11-07T07:25:28.920Z,95193.02
2018-11-07T07:27:58.211Z,95193.44
2018-11-07T07:30:27.432Z,95195.03
2018-11-07T07:32:56.590Z,95194.94
2018-11-07T07:35:25.638Z,95196.73
2018-11-07T07:37:54.719Z,95207.23
2018-11-07T07:40:23.809Z,95198.50
2018-11-07T07:42:52.884Z,95204.99
2018-11-07T07:45:21.985Z,95198.46
2018-11-07T07:47:51.125Z,95196.75
2018-11-07T07:50:20.297Z,95199.59
2018-11-07T07:52:49.431Z,95196.51
2018-11-07T07:55:18.679Z,95198.52
2018-11-07T07:57:47.776Z,95198.43
2018-11-07T08:00:19.227Z,95199.44
2018-11-07T08:02:49.558Z,95200.70
2018-11-07T08:05:18.676Z,95198.98
2018-11-07T08:07:47.995Z,95205.45
2018-11-07T08:10:19.313Z,95201.55
2018-11-07T08:12:49.067Z,95201.41
2018-11-07T08:15:18.752Z,95201.08
2018-11-07T08:17:47.880Z,95200.38
2018-11-07T08:20:17.892Z,95198.72
2018-11-07T08:22:47.851Z,95197.31
2018-11-07T08:25:16.961Z,95199.16
2018-11-07T08:27:46.071Z,95194.74
2018-11-07T08:30:16.391Z,95191.91
2018-11-07T08:32:45.503Z,95185.30
2018-11-07T08:35:15.466Z,95191.47
2018-11-07T08:37:45.310Z,95195.18
2018-11-07T08:40:16.827Z,95185.30
2018-11-07T08:42:45.926Z,95188.45
2018-11-07T08:45:15.287Z,95192.42
2018-11-07T08:47:45.340Z,95196.73
2018-11-07T08:50:20.029Z,95195.58
2018-11-07T08:52:49.561Z,95201.41
2018-11-07T08:55:19.853Z,95207.89
2018-11-07T08:57:49.004Z,95205.69
2018-11-07T09:00:20.312Z,95203.92
2018-11-07T09:02:49.537Z,95198.22
2018-11-07T09:05:19.609Z,95199.84
2018-11-07T09:07:49.155Z,95201.84
2018-11-07T09:10:19.591Z,95212.83
2018-11-07T09:12:48.793Z,95213.98
2018-11-07T09:15:19.063Z,95212.63
2018-11-07T09:17:48.225Z,95211.08
2018-11-07T09:20:18.741Z,95212.55
2018-11-07T09:22:47.828Z,95211.45
2018-11-07T09:25:17.232Z,95212.40
2018-11-07T09:27:46.742Z,95209.52
2018-11-07T09:30:17.227Z,95208.50
2018-11-07T09:32:46.317Z,95199.84
2018-11-07T09:35:15.529Z,95202.42
2018-11-07T09:37:44.803Z,95196.25
2018-11-07T09:40:17.193Z,95185.95
2018-11-07T09:42:47.125Z,95194.27
2018-11-07T09:45:17.423Z,95199.13
2018-11-07T09:47:47.252Z,95184.22
2018-11-07T09:50:17.394Z,95182.05
2018-11-07T09:52:46.665Z,95186.19
2018-11-07T09:55:18.012Z,95185.70
2018-11-07T09:57:47.092Z,95178.48
2018-11-07T10:00:17.699Z,95176.86
2018-11-07T10:02:47.236Z,95178.59
2018-11-07T10:05:22.271Z,95177.34
2018-11-07T10:07:51.421Z,95175.42
2018-11-07T10:10:21.743Z,95178.89
2018-11-07T10:12:51.261Z,95184.45
2018-11-07T10:15:20.873Z,95186.00
2018-11-07T10:17:49.973Z,95188.55
2018-11-07T10:20:20.371Z,95182.83
2018-11-07T10:22:49.724Z,95179.16
2018-11-07T10:25:18.990Z,95178.30
2018-11-07T10:27:48.220Z,95182.66
2018-11-07T10:30:18.736Z,95175.02
2018-11-07T10:32:48.653Z,95177.86
2018-11-07T10:35:17.901Z,95173.52
2018-11-07T10:37:47.043Z,95170.86
2018-11-07T10:40:19.634Z,95166.83
2018-11-07T10:42:49.077Z,95167.58
2018-11-07T10:45:18.210Z,95173.06
2018-11-07T10:47:48.039Z,95171.54
2018-11-07T10:50:18.075Z,95169.53
2018-11-07T10:52:47.598Z,95158.34
2018-11-07T10:55:17.181Z,95161.18
2018-11-07T10:58:49.806Z,95152.77
2018-11-07T11:01:24.217Z,95155.05
2018-11-07T11:03:53.425Z,95143.06
2018-11-07T11:06:22.521Z,95147.30
2018-11-07T11:08:51.921Z,95145.42
2018-11-07T11:11:21.161Z,95138.98
2018-11-07T11:13:50.309Z,95139.48
2018-11-07T11:16:19.369Z,95133.06
2018-11-07T11:18:48.601Z,95140.52
2018-11-07T11:21:17.763Z,95146.63
2018-11-07T11:23:46.897Z,95148.09
2018-11-07T11:26:16.098Z,95139.52
2018-11-07T11:28:45.221Z,95139.84
2018-11-07T11:31:14.325Z,95143.75
2018-11-07T11:33:43.599Z,95146.95
2018-11-07T11:36:12.661Z,95147.66
2018-11-07T11:38:41.758Z,95146.46
2018-11-07T11:41:11.029Z,95140.72
2018-11-07T11:43:40.209Z,95141.61
2018-11-07T11:46:09.280Z,95140.71
2018-11-07T11:48:38.384Z,95144.28
2018-11-07T11:51:07.662Z,95144.11
2018-11-07T11:53:36.876Z,95144.30
2018-11-07T11:56:06.427Z,95138.52
2018-11-07T11:58:35.584Z,95141.02
2018-11-07T12:01:04.912Z,95144.73
2018-11-07T12:03:34.160Z,95146.78
2018-11-07T12:06:03.212Z,95152.17
2018-11-07T12:08:32.506Z,95142.94
2018-11-07T12:11:01.549Z,95142.16
2018-11-07T12:13:30.699Z,95140.45
2018-11-07T12:15:59.741Z,95136.23
2018-11-07T12:18:28.820Z,95134.38
2018-11-07T12:20:57.973Z,95121.80
2018-11-07T12:23:27.040Z,95131.31
2018-11-07T12:25:56.125Z,95130.06
2018-11-07T12:28:25.213Z,95127.68
2018-11-07T12:30:54.252Z,95127.84
2018-11-07T12:33:23.317Z,95129.58
2018-11-07T12:35:52.389Z,95131.50
2018-11-07T12:38:21.459Z,95132.61
2018-11-07T12:40:50.617Z,95133.80
2018-11-07T12:43:19.684Z,95128.25
2018-11-07T12:45:48.849Z,95135.17
2018-11-07T12:48:17.940Z,95133.44
2018-11-07T12:50:47.077Z,95127.32
2018-11-07T12:53:16.220Z,95129.99
2018-11-07T12:55:45.292Z,95129.34
2018-11-07T12:58:14.485Z,95132.21
2018-11-07T13:00:43.463Z,95124.02
2018-11-07T13:03:12.601Z,95128.78
2018-11-07T13:05:41.642Z,95128.13
2018-11-07T13:08:10.881Z,95131.22
2018-11-07T13:10:40.078Z,95130.33
2018-11-07T13:13:09.153Z,95130.67
2018-11-07T13:15:38.321Z,95119.17
2018-11-07T13:18:07.459Z,95124.93
2018-11-07T13:20:36.528Z,95118.70
2018-11-07T13:23:05.592Z,95133.20
2018-11-07T13:25:34.753Z,95140.56
2018-11-07T13:28:04.067Z,95139.29
2018-11-07T13:30:33.085Z,95143.23
2018-11-07T13:33:02.224Z,95136.93
2018-11-07T13:35:31.292Z,95149.64
2018-11-07T13:38:00.521Z,95149.43
2018-11-07T13:40:29.543Z,95147.61
2018-11-07T13:42:58.703Z,95148.77
2018-11-07T13:45:27.819Z,95138.83
2018-11-07T13:47:57.082Z,95138.34
2018-11-07T13:50:26.279Z,95142.20
2018-11-07T13:52:55.425Z,95138.00
2018-11-07T13:55:24.487Z,95143.23
2018-11-07T13:57:53.577Z,95145.13
2018-11-07T14:00:23.658Z,95144.34
2018-11-07T14:02:53.669Z,95143.03
2018-11-07T14:05:22.822Z,95138.59
2018-11-07T14:07:51.801Z,95143.05
2018-11-07T14:10:22.875Z,95143.25
2018-11-07T14:12:52.244Z,95145.19
2018-11-07T14:15:21.498Z,95145.84
2018-11-07T14:17:50.967Z,95138.53
2018-11-07T14:20:20.029Z,95137.19
2018-11-07T14:22:49.091Z,95143.73
2018-11-07T14:25:18.283Z,95138.37
2018-11-07T14:27:47.527Z,95129.64
2018-11-07T14:30:18.082Z,95138.31
2018-11-07T14:32:50.886Z,95134.71
2018-11-07T14:35:19.928Z,95124.89
2018-11-07T14:37:49.285Z,95119.16
2018-11-07T14:40:18.432Z,95126.38
2018-11-07T14:42:47.541Z,95127.00
2018-11-07T14:45:16.619Z,95127.74
2018-11-07T14:47:45.799Z,95126.52
2018-11-07T14:50:15.172Z,95124.41
2018-11-07T14:52:44.311Z,95120.09
2018-11-07T14:55:13.768Z,95121.95
2018-11-07T14:57:42.900Z,95124.00
2018-11-07T15:00:13.496Z,95117.79
2018-11-07T15:02:43.449Z,95128.30
2018-11-07T15:05:13.527Z,95127.66
2018-11-07T15:07:43.463Z,95130.61
2018-11-07T15:10:13.582Z,95129.47
2018-11-07T15:12:42.685Z,95125.69
2018-11-07T15:15:13.092Z,95130.70
2018-11-07T15:17:42.371Z,95133.43
2018-11-07T15:20:12.650Z,95135.25
2018-11-07T15:22:41.936Z,95130.27
2018-11-07T15:25:12.583Z,95137.65
2018-11-07T15:27:42.923Z,95128.63
2018-11-07T15:30:12.916Z,95131.99
2018-11-07T15:32:42.690Z,95133.19
2018-11-07T15:35:12.302Z,95130.81
2018-11-07T15:37:41.625Z,95135.69
2018-11-07T15:40:12.950Z,95139.39
2018-11-07T15:42:42.512Z,95143.38
2018-11-07T15:45:13.345Z,95147.50
2018-11-07T15:47:42.704Z,95162.83
2018-11-07T15:50:17.057Z,95167.30
2018-11-07T15:52:47.084Z,95169.73
2018-11-07T15:55:16.216Z,95176.72
2018-11-07T15:57:45.453Z,95169.48
2018-11-07T16:00:16.871Z,95176.91
2018-11-07T16:02:46.214Z,95186.28
2018-11-07T16:05:16.241Z,95187.84
2018-11-07T16:07:45.634Z,95192.20
2018-11-07T16:10:15.559Z,95196.31
2018-11-07T16:12:44.643Z,95197.93
2018-11-07T16:15:15.317Z,95201.17
2018-11-07T16:17:44.571Z,95203.89
2018-11-07T16:20:15.980Z,95198.40
2018-11-07T16:22:45.926Z,95195.61
2018-11-07T16:25:15.056Z,95203.05
2018-11-07T16:27:44.557Z,95202.32
2018-11-07T16:30:16.026Z,95215.72
2018-11-07T16:32:45.198Z,95215.50
2018-11-07T16:35:14.752Z,95219.77
2018-11-07T16:37:44.356Z,95224.77
2018-11-07T16:40:15.813Z,95229.61
2018-11-07T16:42:45.351Z,95236.98
2018-11-07T16:45:15.593Z,95239.23
2018-11-07T16:47:44.993Z,95248.29
2018-11-07T16:50:15.125Z,95249.28
2018-11-07T16:52:44.296Z,95253.30
2018-11-07T16:55:13.480Z,95261.23
2018-11-07T16:57:43.153Z,95263.05
2018-11-07T17:00:17.375Z,95271.81
2018-11-07T17:02:46.821Z,95282.30
2018-11-07T17:05:16.443Z,95274.46
2018-11-07T17:07:46.035Z,95284.23
2018-11-07T17:10:15.413Z,95288.34
2018-11-07T17:12:44.639Z,95298.17
2018-11-07T17:15:13.866Z,95298.08
2018-11-07T17:17:43.015Z,95307.95
2018-11-07T17:20:13.478Z,95310.92
2018-11-07T17:22:43.097Z,95308.44
2018-11-07T17:25:14.771Z,95307.38
2018-11-07T17:27:44.128Z,95317.73
2018-11-07T17:30:14.576Z,95324.83
2018-11-07T17:32:43.949Z,95329.63
2018-11-07T17:35:14.227Z,95336.91
2018-11-07T17:37:43.797Z,95339.28
2018-11-07T17:40:15.986Z,95345.53
2018-11-07T17:42:46.426Z,95350.36
2018-11-07T17:45:17.309Z,95349.70
2018-11-07T17:47:47.055Z,95358.94
2018-11-07T17:50:17.165Z,95358.64
2018-11-07T17:52:46.304Z,95353.36
2018-11-07T17:55:16.968Z,95369.27
2018-11-07T17:57:46.089Z,95378.30
2018-11-07T18:00:19.538Z,95374.45
2018-11-07T18:02:54.917Z,95382.19
2018-11-07T18:05:24.043Z,95381.72
2018-11-07T18:07:53.195Z,95387.19
2018-11-07T18:10:22.290Z,95391.96
2018-11-07T18:12:51.491Z,95398.92
2018-11-07T18:15:20.581Z,95394.42
2018-11-07T18:17:49.693Z,95393.88
2018-11-07T18:20:19.227Z,95397.94
2018-11-07T18:22:48.302Z,95389.98
2018-11-07T18:25:18.049Z,95390.88
2018-11-07T18:27:47.244Z,95395.92
2018-11-07T18:30:17.294Z,95390.64
2018-11-07T18:32:47.220Z,95398.83
2018-11-07T18:35:17.726Z,95401.30
2018-11-07T18:37:47.011Z,95398.35
2018-11-07T18:40:17.389Z,95399.22
2018-11-07T18:42:47.124Z,95395.03
2018-11-07T18:45:16.545Z,95399.06
2018-11-07T18:47:46.687Z,95413.70
2018-11-07T18:50:17.388Z,95427.55
2018-11-07T18:52:46.358Z,95423.47
2018-11-07T18:55:16.452Z,95435.52
2018-11-07T18:57:46.119Z,95438.20
2018-11-07T19:00:16.880Z,95440.08
2018-11-07T19:02:46.520Z,95444.50
2018-11-07T19:05:15.623Z,95446.34
2018-11-07T19:07:45.112Z,95450.64
2018-11-07T19:10:16.208Z,95456.31
2018-11-07T19:12:46.092Z,95463.26
2018-11-07T19:15:15.972Z,95476.36
2018-11-07T19:17:45.968Z,95471.89
2018-11-07T19:20:15.976Z,95471.53
2018-11-07T19:22:45.132Z,95478.45
2018-11-07T19:25:15.730Z,95478.03
2018-11-07T19:27:44.820Z,95482.41
2018-11-07T19:30:17.489Z,95482.41
2018-11-07T19:32:47.699Z,95489.95
2018-11-07T19:35:17.653Z,95491.44
2018-11-07T19:37:47.422Z,95494.22
2018-11-07T19:40:19.078Z,95498.55
2018-11-07T19:42:48.182Z,95504.86
2018-11-07T19:45:18.491Z,95513.13
2018-11-07T19:47:48.193Z,95510.86
2018-11-07T19:50:18.541Z,95518.80
2018-11-07T19:52:48.647Z,95514.14
2018-11-07T19:55:19.653Z,95523.64
2018-11-07T19:57:52.085Z,95526.33
2018-11-07T20:00:21.229Z,95531.74
2018-11-07T20:02:50.447Z,95528.86
2018-11-07T20:05:19.632Z,95530.26
2018-11-07T20:07:48.797Z,95536.80
2018-11-07T20:10:19.302Z,95534.41
2018-11-07T20:12:48.446Z,95537.82
2018-11-07T20:15:18.611Z,95537.58
2018-11-07T20:17:48.103Z,95539.42
2018-11-07T20:20:17.230Z,95539.73
2018-11-07T20:22:46.423Z,95548.55
2018-11-07T20:25:15.879Z,95549.95
2018-11-07T20:27:45.436Z,95556.70
2018-11-07T20:30:15.943Z,95574.36
2018-11-07T20:32:45.262Z,95571.39
2018-11-07T20:35:15.797Z,95579.23
2018-11-07T20:37:44.884Z,95576.81
2018-11-07T20:40:15.416Z,95582.50
2018-11-07T20:42:44.512Z,95588.78
2018-11-07T20:45:14.502Z,95578.17
2018-11-07T20:47:43.652Z,95581.17
2018-11-07T20:50:14.419Z,95596.75
2018-11-07T20:52:44.029Z,95594.30
2018-11-07T20:55:13.725Z,95596.14
2018-11-07T20:57:42.888Z,95594.54
2018-11-07T21:00:14.281Z,95600.05
2018-11-07T21:02:44.051Z,95609.59
2018-11-07T21:05:13.307Z,95608.27
2018-11-07T21:07:42.634Z,95617.78
2018-11-07T21:10:13.945Z,95616.99
2018-11-07T21:12:44.239Z,95616.69
2018-11-07T21:15:14.729Z,95624.35
2018-11-07T21:17:44.341Z,95621.38
2018-11-07T21:20:13.517Z,95628.74
2018-11-07T21:22:43.038Z,95627.66
2018-11-07T21:25:12.647Z,95629.77
2018-11-07T21:27:41.844Z,95632.17
2018-11-07T21:30:12.318Z,95633.56
2018-11-07T21:32:41.777Z,95637.69
2018-11-07T21:35:10.996Z,95635.44
2018-11-07T21:37:40.583Z,95638.28
2018-11-07T21:40:13.692Z,95640.95
2018-11-07T21:42:43.079Z,95648.86
2018-11-07T21:45:13.261Z,95643.73
2018-11-07T21:47:42.765Z,95650.50
2018-11-07T21:50:13.311Z,95653.52
2018-11-07T21:52:42.419Z,95652.46
2018-11-07T21:55:11.555Z,95650.28
2018-11-07T21:57:40.661Z,95650.50
2018-11-07T22:00:11.670Z,95649.49
2018-11-07T22:02:40.861Z,95659.88
2018-11-07T22:05:10.939Z,95659.55
2018-11-07T22:07:40.232Z,95665.60
2018-11-07T22:10:10.555Z,95670.78
2018-11-07T22:12:39.698Z,95674.08
2018-11-07T22:15:09.586Z,95685.52
2018-11-07T22:17:38.648Z,95691.81
2018-11-07T22:20:09.971Z,95682.27
2018-11-07T22:22:39.082Z,95683.14
2018-11-07T22:25:08.237Z,95684.45
2018-11-07T22:27:37.380Z,95686.11
2018-11-07T22:30:11.516Z,95691.85
2018-11-07T22:32:40.933Z,95694.03
2018-11-07T22:35:11.617Z,95699.49
2018-11-07T22:37:40.851Z,95697.58
2018-11-07T22:40:11.677Z,95697.35
2018-11-07T22:42:40.813Z,95701.73
2018-11-07T22:45:10.824Z,95705.02
2018-11-07T22:47:40.293Z,95710.47
2018-11-07T22:50:10.933Z,95712.90
2018-11-07T22:52:40.723Z,95709.91
2018-11-07T22:55:09.996Z,95714.56
2018-11-07T22:57:39.241Z,95712.36
2018-11-07T23:00:18.228Z,95714.57
2018-11-07T23:02:48.117Z,95714.59
2018-11-07T23:05:17.809Z,95721.66
2018-11-07T23:07:46.973Z,95719.50
2018-11-07T23:10:16.055Z,95720.89
2018-11-07T23:12:45.165Z,95724.16
2018-11-07T23:15:19.677Z,95729.32
2018-11-07T23:17:48.894Z,95726.86
2018-11-07T23:20:18.042Z,95727.17
2018-11-07T23:22:47.231Z,95732.89
2018-11-07T23:25:16.325Z,95738.33
2018-11-07T23:27:45.791Z,95734.28
2018-11-07T23:30:14.863Z,95737.81
2018-11-07T23:32:44.471Z,95733.70
2018-11-07T23:35:13.541Z,95746.00
2018-11-07T23:37:42.676Z,95748.95
2018-11-07T23:40:11.821Z,95752.22
2018-11-07T23:42:40.893Z,95748.10
2018-11-07T23:45:10.017Z,95746.80
2018-11-07T23:47:39.117Z,95751.17
2018-11-07T23:50:08.657Z,95754.69
2018-11-07T23:52:42.972Z,95753.09
2018-11-07T23:55:12.052Z,95754.99
2018-11-07T23:57:41.223Z,95752.57
